sensor_id;sensor_type;location;lat;lon;timestamp;pressure;altitude;pressure_sealevel;temperature;humidity
6096;BME280;25081;42.698;23.298;2023-06-22T00:00:48;95641.42;;;19.17;79.75
6096;BME280;25081;42.698;23.298;2023-06-22T00:02:57;95643.53;;;19.07;79.52
6096;BME280;25081;42.698;23.298;2023-06-22T00:05:09;95641.86;;;18.99;80.16
6096;BME280;25081;42.698;23.298;2023-06-22T00:07:20;95641.81;;;18.91;80.52
6096;BME280;25081;42.698;23.298;2023-06-22T00:09:30;95638.02;;;18.87;80.98
6096;BME280;25081;42.698;23.298;2023-06-22T00:11:41;95644.01;;;18.92;81.15
6096;BME280;25081;42.698;23.298;2023-06-22T00:13:52;95640.77;;;18.92;80.83
6096;BME280;25081;42.698;23.298;2023-06-22T00:16:03;95640.73;;;18.90;80.88
6096;BME280;25081;42.698;23.298;2023-06-22T00:18:14;95636.93;;;18.83;81.22
6096;BME280;25081;42.698;23.298;2023-06-22T00:20:24;95634.45;;;18.79;82.09
6096;BME280;25081;42.698;23.298;2023-06-22T00:22:37;95637.62;;;18.68;82.15
6096;BME280;25081;42.698;23.298;2023-06-22T00:24:47;95631.86;;;18.59;82.32
6096;BME280;25081;42.698;23.298;2023-06-22T00:26:58;95629.17;;;18.62;82.37
6096;BME280;25081;42.698;23.298;2023-06-22T00:29:08;95624.98;;;18.74;82.70
6096;BME280;25081;42.698;23.298;2023-06-22T00:31:19;95621.48;;;18.76;82.46
6096;BME280;25081;42.698;23.298;2023-06-22T00:33:30;95620.39;;;18.74;82.57
6096;BME280;25081;42.698;23.298;2023-06-22T00:35:40;95621.16;;;18.70;82.16
6096;BME280;25081;42.698;23.298;2023-06-22T00:37:51;95621.06;;;18.62;81.82
6096;BME280;25081;42.698;23.298;2023-06-22T00:40:01;95620.08;;;18.34;83.49
6096;BME280;25081;42.698;23.298;2023-06-22T00:42:13;95618.23;;;18.42;83.24
6096;BME280;25081;42.698;23.298;2023-06-22T00:44:24;95620.45;;;18.50;82.99
6096;BME280;25081;42.698;23.298;2023-06-22T00:46:35;95615.57;;;18.44;82.40
6096;BME280;25081;42.698;23.298;2023-06-22T00:48:45;95620.39;;;18.42;82.98
6096;BME280;25081;42.698;23.298;2023-06-22T00:50:56;95622.59;;;18.45;82.57
6096;BME280;25081;42.698;23.298;2023-06-22T00:53:07;95620.17;;;18.49;83.54
6096;BME280;25081;42.698;23.298;2023-06-22T00:55:18;95622.12;;;18.53;83.39
6096;BME280;25081;42.698;23.298;2023-06-22T00:57:29;95625.37;;;18.55;83.42
6096;BME280;25081;42.698;23.298;2023-06-22T00:59:40;95629.41;;;18.53;83.57
6096;BME280;25081;42.698;23.298;2023-06-22T01:01:50;95627.47;;;18.51;83.01
6096;BME280;25081;42.698;23.298;2023-06-22T01:04:01;95628.29;;;18.51;82.83
6096;BME280;25081;42.698;23.298;2023-06-22T01:06:14;95635.28;;;18.45;82.76
6096;BME280;25081;42.698;23.298;2023-06-22T01:08:29;95645.73;;;18.34;83.47
6096;BME280;25081;42.698;23.298;2023-06-22T01:10:39;95639.17;;;18.24;83.66
6096;BME280;25081;42.698;23.298;2023-06-22T01:12:51;95638.67;;;18.33;84.08
6096;BME280;25081;42.698;23.298;2023-06-22T01:15:02;95635.44;;;18.33;83.90
6096;BME280;25081;42.698;23.298;2023-06-22T01:17:12;95628.47;;;18.37;83.80
6096;BME280;25081;42.698;23.298;2023-06-22T01:19:35;95625.50;;;18.39;83.95
6096;BME280;25081;42.698;23.298;2023-06-22T01:21:45;95625.23;;;18.40;84.03
6096;BME280;25081;42.698;23.298;2023-06-22T01:24:02;95634.20;;;18.43;84.09
6096;BME280;25081;42.698;23.298;2023-06-22T01:26:15;95626.33;;;18.42;84.04
6096;BME280;25081;42.698;23.298;2023-06-22T01:28:45;95633.86;;;18.37;84.28
6096;BME280;25081;42.698;23.298;2023-06-22T01:30:55;95636.29;;;18.36;84.79
6096;BME280;25081;42.698;23.298;2023-06-22T01:33:11;95651.15;;;18.39;84.16
6096;BME280;25081;42.698;23.298;2023-06-22T01:35:22;95649.25;;;18.37;82.00
6096;BME280;25081;42.698;23.298;2023-06-22T01:37:33;95651.55;;;18.23;82.75
6096;BME280;25081;42.698;23.298;2023-06-22T01:39:43;95650.11;;;18.13;84.01
6096;BME280;25081;42.698;23.298;2023-06-22T01:41:54;95654.40;;;18.09;83.79
6096;BME280;25081;42.698;23.298;2023-06-22T01:44:05;95657.28;;;17.99;83.34
6096;BME280;25081;42.698;23.298;2023-06-22T01:46:16;95655.66;;;17.98;82.47
6096;BME280;25081;42.698;23.298;2023-06-22T01:48:27;95651.28;;;17.95;81.73
6096;BME280;25081;42.698;23.298;2023-06-22T01:50:38;95649.37;;;17.93;82.33
6096;BME280;25081;42.698;23.298;2023-06-22T01:52:48;95650.16;;;17.88;81.64
6096;BME280;25081;42.698;23.298;2023-06-22T01:55:02;95660.95;;;17.88;80.90
6096;BME280;25081;42.698;23.298;2023-06-22T01:57:12;95649.64;;;17.91;80.78
6096;BME280;25081;42.698;23.298;2023-06-22T01:59:25;95665.11;;;18.01;80.44
6096;BME280;25081;42.698;23.298;2023-06-22T02:01:35;95664.28;;;17.98;80.42
6096;BME280;25081;42.698;23.298;2023-06-22T02:03:46;95664.28;;;17.98;81.55
6096;BME280;25081;42.698;23.298;2023-06-22T02:05:58;95670.51;;;18.01;82.16
6096;BME280;25081;42.698;23.298;2023-06-22T02:08:09;95673.48;;;18.02;83.52
6096;BME280;25081;42.698;23.298;2023-06-22T02:10:19;95675.91;;;18.01;84.80
6096;BME280;25081;42.698;23.298;2023-06-22T02:12:29;95673.94;;;17.94;85.91
6096;BME280;25081;42.698;23.298;2023-06-22T02:14:40;95676.42;;;17.98;85.93
6096;BME280;25081;42.698;23.298;2023-06-22T02:16:51;95678.59;;;17.98;86.03
6096;BME280;25081;42.698;23.298;2023-06-22T02:19:02;95662.40;;;17.98;86.47
6096;BME280;25081;42.698;23.298;2023-06-22T02:21:13;95664.04;;;18.02;86.51
6096;BME280;25081;42.698;23.298;2023-06-22T02:23:24;95665.65;;;18.00;86.34
6096;BME280;25081;42.698;23.298;2023-06-22T02:25:35;95666.60;;;17.87;86.52
6096;BME280;25081;42.698;23.298;2023-06-22T02:27:45;95666.34;;;17.88;86.30
6096;BME280;25081;42.698;23.298;2023-06-22T02:29:56;95660.34;;;17.84;85.92
6096;BME280;25081;42.698;23.298;2023-06-22T02:32:08;95656.00;;;17.80;86.07
6096;BME280;25081;42.698;23.298;2023-06-22T02:34:18;95656.27;;;17.79;86.39
6096;BME280;25081;42.698;23.298;2023-06-22T02:36:29;95650.80;;;17.73;86.38
6096;BME280;25081;42.698;23.298;2023-06-22T02:38:41;95658.77;;;17.66;86.95
6096;BME280;25081;42.698;23.298;2023-06-22T02:40:53;95654.05;;;17.76;86.70
6096;BME280;25081;42.698;23.298;2023-06-22T02:43:03;95667.17;;;17.67;87.10
6096;BME280;25081;42.698;23.298;2023-06-22T02:45:15;95666.02;;;17.63;87.38
6096;BME280;25081;42.698;23.298;2023-06-22T02:47:26;95665.23;;;17.65;86.44
6096;BME280;25081;42.698;23.298;2023-06-22T02:49:36;95665.23;;;17.65;86.44
6096;BME280;25081;42.698;23.298;2023-06-22T02:51:47;95650.56;;;17.56;86.71
6096;BME280;25081;42.698;23.298;2023-06-22T02:53:58;95666.28;;;17.61;86.97
6096;BME280;25081;42.698;23.298;2023-06-22T02:56:08;95674.09;;;17.60;86.66
6096;BME280;25081;42.698;23.298;2023-06-22T02:58:19;95657.36;;;17.58;86.65
6096;BME280;25081;42.698;23.298;2023-06-22T03:00:30;95664.67;;;17.63;86.48
6096;BME280;25081;42.698;23.298;2023-06-22T03:02:40;95671.16;;;17.64;87.92
6096;BME280;25081;42.698;23.298;2023-06-22T03:04:51;95668.61;;;17.74;87.07
6096;BME280;25081;42.698;23.298;2023-06-22T03:07:02;95672.53;;;17.86;86.34
6096;BME280;25081;42.698;23.298;2023-06-22T03:09:13;95659.49;;;17.78;86.93
6096;BME280;25081;42.698;23.298;2023-06-22T03:11:23;95672.13;;;18.02;85.97
6096;BME280;25081;42.698;23.298;2023-06-22T03:13:34;95672.13;;;18.02;85.97
6096;BME280;25081;42.698;23.298;2023-06-22T03:15:45;95675.01;;;18.20;85.29
6096;BME280;25081;42.698;23.298;2023-06-22T03:17:56;95681.91;;;18.35;84.25
6096;BME280;25081;42.698;23.298;2023-06-22T03:20:09;95688.83;;;18.55;83.35
6096;BME280;25081;42.698;23.298;2023-06-22T03:22:19;95685.70;;;18.69;82.40
6096;BME280;25081;42.698;23.298;2023-06-22T03:24:30;95691.45;;;18.77;83.31
6096;BME280;25081;42.698;23.298;2023-06-22T03:26:41;95692.86;;;18.85;81.47
6096;BME280;25081;42.698;23.298;2023-06-22T03:28:51;95694.30;;;19.00;81.66
6096;BME280;25081;42.698;23.298;2023-06-22T03:31:02;95695.70;;;19.08;79.84
6096;BME280;25081;42.698;23.298;2023-06-22T03:33:13;95686.62;;;19.24;80.47
6096;BME280;25081;42.698;23.298;2023-06-22T03:35:23;95701.59;;;19.42;80.51
6096;BME280;25081;42.698;23.298;2023-06-22T03:37:34;95698.61;;;19.41;78.05
6096;BME280;25081;42.698;23.298;2023-06-22T03:39:45;95699.92;;;19.36;77.75
6096;BME280;25081;42.698;23.298;2023-06-22T03:41:55;95708.39;;;19.52;76.22
6096;BME280;25081;42.698;23.298;2023-06-22T03:44:06;95711.91;;;19.53;76.57
6096;BME280;25081;42.698;23.298;2023-06-22T03:46:17;95702.98;;;19.50;78.53
6096;BME280;25081;42.698;23.298;2023-06-22T03:48:28;95708.47;;;19.67;76.76
6096;BME280;25081;42.698;23.298;2023-06-22T03:50:38;95705.56;;;19.82;75.68
6096;BME280;25081;42.698;23.298;2023-06-22T03:52:49;95709.08;;;19.82;75.35
6096;BME280;25081;42.698;23.298;2023-06-22T03:54:59;95716.45;;;20.05;75.36
6096;BME280;25081;42.698;23.298;2023-06-22T03:57:10;95719.97;;;20.05;74.45
6096;BME280;25081;42.698;23.298;2023-06-22T03:59:20;95716.45;;;20.02;74.12
6096;BME280;25081;42.698;23.298;2023-06-22T04:01:31;95711.25;;;19.88;74.97
6096;BME280;25081;42.698;23.298;2023-06-22T04:03:42;95711.71;;;19.59;75.95
6096;BME280;25081;42.698;23.298;2023-06-22T04:05:52;95716.31;;;19.64;76.35
6096;BME280;25081;42.698;23.298;2023-06-22T04:08:04;95720.41;;;19.71;75.90
6096;BME280;25081;42.698;23.298;2023-06-22T04:10:14;95720.72;;;19.83;75.49
6096;BME280;25081;42.698;23.298;2023-06-22T04:12:25;95713.06;;;19.64;75.52
6096;BME280;25081;42.698;23.298;2023-06-22T04:14:35;95705.05;;;19.32;76.77
6096;BME280;25081;42.698;23.298;2023-06-22T04:16:46;95698.99;;;19.12;77.42
6096;BME280;25081;42.698;23.298;2023-06-22T04:18:57;95696.30;;;19.15;78.15
6096;BME280;25081;42.698;23.298;2023-06-22T04:21:07;95700.08;;;19.61;77.95
6096;BME280;25081;42.698;23.298;2023-06-22T04:23:18;95695.83;;;19.86;75.59
6096;BME280;25081;42.698;23.298;2023-06-22T04:25:29;95688.25;;;19.85;75.40
6096;BME280;25081;42.698;23.298;2023-06-22T04:27:39;95684.59;;;20.45;72.82
6096;BME280;25081;42.698;23.298;2023-06-22T04:29:50;95685.64;;;20.34;73.10
6096;BME280;25081;42.698;23.298;2023-06-22T04:32:01;95682.95;;;20.41;73.00
6096;BME280;25081;42.698;23.298;2023-06-22T04:34:12;95688.41;;;20.84;71.36
6096;BME280;25081;42.698;23.298;2023-06-22T04:36:23;95689.67;;;21.23;71.85
6096;BME280;25081;42.698;23.298;2023-06-22T04:38:33;95690.55;;;21.90;67.82
6096;BME280;25081;42.698;23.298;2023-06-22T04:40:44;95691.27;;;21.49;68.54
6096;BME280;25081;42.698;23.298;2023-06-22T04:42:54;95698.96;;;20.73;70.92
6096;BME280;25081;42.698;23.298;2023-06-22T04:45:09;95695.72;;;20.86;71.25
6096;BME280;25081;42.698;23.298;2023-06-22T04:47:19;95693.77;;;21.12;69.99
6096;BME280;25081;42.698;23.298;2023-06-22T04:49:30;95694.05;;;21.34;69.00
6096;BME280;25081;42.698;23.298;2023-06-22T04:51:42;95691.34;;;22.45;66.53
6096;BME280;25081;42.698;23.298;2023-06-22T04:53:53;95692.66;;;22.87;64.39
6096;BME280;25081;42.698;23.298;2023-06-22T04:56:04;95690.78;;;22.82;63.59
6096;BME280;25081;42.698;23.298;2023-06-22T04:58:15;95700.77;;;22.97;64.04
6096;BME280;25081;42.698;23.298;2023-06-22T05:00:26;95701.92;;;22.89;63.79
6096;BME280;25081;42.698;23.298;2023-06-22T05:02:36;95700.02;;;23.18;63.30
6096;BME280;25081;42.698;23.298;2023-06-22T05:04:47;95701.34;;;23.21;62.50
6096;BME280;25081;42.698;23.298;2023-06-22T05:06:58;95699.91;;;23.79;61.64
6096;BME280;25081;42.698;23.298;2023-06-22T05:09:08;95694.50;;;25.08;57.73
6096;BME280;25081;42.698;23.298;2023-06-22T05:11:19;95698.05;;;25.82;54.25
6096;BME280;25081;42.698;23.298;2023-06-22T05:13:30;95697.89;;;25.76;54.98
6096;BME280;25081;42.698;23.298;2023-06-22T05:15:40;95697.94;;;25.60;53.91
6096;BME280;25081;42.698;23.298;2023-06-22T05:17:51;95693.34;;;24.44;57.60
6096;BME280;25081;42.698;23.298;2023-06-22T05:20:02;95696.52;;;24.32;58.16
6096;BME280;25081;42.698;23.298;2023-06-22T05:22:15;95697.38;;;25.60;54.32
6096;BME280;25081;42.698;23.298;2023-06-22T05:24:25;95697.83;;;26.31;52.71
6096;BME280;25081;42.698;23.298;2023-06-22T05:26:36;95696.88;;;26.74;51.23
6096;BME280;25081;42.698;23.298;2023-06-22T05:28:47;95698.19;;;27.22;51.14
6096;BME280;25081;42.698;23.298;2023-06-22T05:30:57;95690.17;;;27.14;50.52
6096;BME280;25081;42.698;23.298;2023-06-22T05:33:08;95695.48;;;27.50;49.20
6096;BME280;25081;42.698;23.298;2023-06-22T05:35:18;95697.28;;;28.51;47.18
6096;BME280;25081;42.698;23.298;2023-06-22T05:37:29;95702.27;;;28.32;46.84
6096;BME280;25081;42.698;23.298;2023-06-22T05:39:39;95698.00;;;28.63;46.61
6096;BME280;25081;42.698;23.298;2023-06-22T05:41:50;95708.69;;;28.99;45.69
6096;BME280;25081;42.698;23.298;2023-06-22T05:44:01;95712.09;;;29.37;43.79
6096;BME280;25081;42.698;23.298;2023-06-22T05:46:12;95709.30;;;28.53;44.77
6096;BME280;25081;42.698;23.298;2023-06-22T05:48:22;95716.59;;;28.66;44.69
6096;BME280;25081;42.698;23.298;2023-06-22T05:50:33;95716.30;;;28.31;45.68
6096;BME280;25081;42.698;23.298;2023-06-22T05:52:44;95715.52;;;28.39;45.74
6096;BME280;25081;42.698;23.298;2023-06-22T05:54:54;95712.58;;;29.30;44.73
6096;BME280;25081;42.698;23.298;2023-06-22T05:57:06;95716.15;;;29.86;42.37
6096;BME280;25081;42.698;23.298;2023-06-22T05:59:16;95721.17;;;28.51;45.22
6096;BME280;25081;42.698;23.298;2023-06-22T06:01:28;95729.88;;;27.03;48.16
6096;BME280;25081;42.698;23.298;2023-06-22T06:03:38;95728.19;;;26.18;49.70
6096;BME280;25081;42.698;23.298;2023-06-22T06:05:49;95716.13;;;28.07;46.75
6096;BME280;25081;42.698;23.298;2023-06-22T06:08:00;95715.19;;;28.40;45.20
6096;BME280;25081;42.698;23.298;2023-06-22T06:10:11;95714.98;;;26.34;50.18
6096;BME280;25081;42.698;23.298;2023-06-22T06:12:21;95720.69;;;26.74;50.32
6096;BME280;25081;42.698;23.298;2023-06-22T06:14:34;95709.41;;;27.43;48.30
6096;BME280;25081;42.698;23.298;2023-06-22T06:16:43;95706.97;;;27.52;47.99
6096;BME280;25081;42.698;23.298;2023-06-22T06:18:53;95700.23;;;26.94;49.00
6096;BME280;25081;42.698;23.298;2023-06-22T06:21:05;95702.20;;;27.66;48.20
6096;BME280;25081;42.698;23.298;2023-06-22T06:23:15;95698.75;;;28.92;44.70
6096;BME280;25081;42.698;23.298;2023-06-22T06:25:26;95698.97;;;29.43;43.55
6096;BME280;25081;42.698;23.298;2023-06-22T06:27:37;95698.73;;;29.50;44.00
6096;BME280;25081;42.698;23.298;2023-06-22T06:29:47;95702.72;;;28.89;44.55
6096;BME280;25081;42.698;23.298;2023-06-22T06:31:58;95704.84;;;28.00;45.88
6096;BME280;25081;42.698;23.298;2023-06-22T06:34:08;95707.84;;;27.39;48.09
6096;BME280;25081;42.698;23.298;2023-06-22T06:36:19;95705.27;;;27.12;49.12
6096;BME280;25081;42.698;23.298;2023-06-22T06:38:29;95699.41;;;27.98;48.09
6096;BME280;25081;42.698;23.298;2023-06-22T06:40:40;95695.61;;;27.56;47.81
6096;BME280;25081;42.698;23.298;2023-06-22T06:42:51;95694.19;;;28.07;46.10
6096;BME280;25081;42.698;23.298;2023-06-22T06:45:07;95684.91;;;28.34;45.92
6096;BME280;25081;42.698;23.298;2023-06-22T06:47:19;95687.33;;;28.36;46.15
6096;BME280;25081;42.698;23.298;2023-06-22T06:49:30;95681.69;;;29.10;44.47
6096;BME280;25081;42.698;23.298;2023-06-22T06:51:40;95684.83;;;29.93;42.53
6096;BME280;25081;42.698;23.298;2023-06-22T06:53:51;95685.36;;;30.31;41.03
6096;BME280;25081;42.698;23.298;2023-06-22T06:56:02;95676.61;;;30.29;41.40
6096;BME280;25081;42.698;23.298;2023-06-22T06:58:12;95678.16;;;29.80;42.63
6096;BME280;25081;42.698;23.298;2023-06-22T07:00:23;95676.80;;;28.66;44.84
6096;BME280;25081;42.698;23.298;2023-06-22T07:02:33;95676.02;;;30.80;41.87
6096;BME280;25081;42.698;23.298;2023-06-22T07:04:44;95674.68;;;29.62;42.57
6096;BME280;25081;42.698;23.298;2023-06-22T07:06:54;95670.71;;;29.33;44.53
6096;BME280;25081;42.698;23.298;2023-06-22T07:09:05;95677.36;;;28.57;45.82
6096;BME280;25081;42.698;23.298;2023-06-22T07:11:16;95677.67;;;30.93;40.65
6096;BME280;25081;42.698;23.298;2023-06-22T07:13:26;95666.19;;;32.25;37.43
6096;BME280;25081;42.698;23.298;2023-06-22T07:15:37;95667.34;;;32.24;37.30
6096;BME280;25081;42.698;23.298;2023-06-22T07:17:47;95676.13;;;30.63;39.71
6096;BME280;25081;42.698;23.298;2023-06-22T07:19:58;95677.91;;;30.94;40.14
6096;BME280;25081;42.698;23.298;2023-06-22T07:22:09;95673.34;;;31.89;38.01
6096;BME280;25081;42.698;23.298;2023-06-22T07:24:20;95665.29;;;32.14;39.09
6096;BME280;25081;42.698;23.298;2023-06-22T07:26:30;95667.06;;;33.49;36.24
6096;BME280;25081;42.698;23.298;2023-06-22T07:28:41;95664.11;;;34.31;34.70
6096;BME280;25081;42.698;23.298;2023-06-22T07:30:52;95663.59;;;34.35;34.73
6096;BME280;25081;42.698;23.298;2023-06-22T07:33:02;95669.50;;;34.49;34.61
6096;BME280;25081;42.698;23.298;2023-06-22T07:35:14;95670.09;;;34.58;33.94
6096;BME280;25081;42.698;23.298;2023-06-22T07:37:26;95665.47;;;34.21;34.97
6096;BME280;25081;42.698;23.298;2023-06-22T07:39:37;95670.10;;;32.17;37.78
6096;BME280;25081;42.698;23.298;2023-06-22T07:41:47;95673.95;;;32.65;37.18
6096;BME280;25081;42.698;23.298;2023-06-22T07:43:58;95673.31;;;32.26;38.14
6096;BME280;25081;42.698;23.298;2023-06-22T07:46:09;95676.00;;;32.68;37.19
6096;BME280;25081;42.698;23.298;2023-06-22T07:48:21;95675.94;;;34.12;34.63
6096;BME280;25081;42.698;23.298;2023-06-22T07:50:31;95676.56;;;34.05;34.99
6096;BME280;25081;42.698;23.298;2023-06-22T07:52:42;95672.08;;;33.91;35.94
6096;BME280;25081;42.698;23.298;2023-06-22T07:54:53;95671.36;;;32.20;38.92
6096;BME280;25081;42.698;23.298;2023-06-22T07:57:04;95676.91;;;30.99;41.42
6096;BME280;25081;42.698;23.298;2023-06-22T07:59:15;95672.31;;;30.76;42.10
6096;BME280;25081;42.698;23.298;2023-06-22T08:01:25;95667.30;;;31.50;41.02
6096;BME280;25081;42.698;23.298;2023-06-22T08:03:37;95664.01;;;31.94;39.28
6096;BME280;25081;42.698;23.298;2023-06-22T08:05:47;95665.13;;;32.41;38.66
6096;BME280;25081;42.698;23.298;2023-06-22T08:07:58;95660.47;;;32.05;40.09
6096;BME280;25081;42.698;23.298;2023-06-22T08:10:11;95653.05;;;33.74;37.41
6096;BME280;25081;42.698;23.298;2023-06-22T08:12:21;95650.16;;;35.49;33.12
6096;BME280;25081;42.698;23.298;2023-06-22T08:14:32;95645.89;;;35.78;32.86
6096;BME280;25081;42.698;23.298;2023-06-22T08:16:43;95645.36;;;34.24;36.06
6096;BME280;25081;42.698;23.298;2023-06-22T08:18:53;95640.64;;;34.69;36.41
6096;BME280;25081;42.698;23.298;2023-06-22T08:21:04;95644.26;;;35.41;34.10
6096;BME280;25081;42.698;23.298;2023-06-22T08:23:15;95637.13;;;34.82;34.41
6096;BME280;25081;42.698;23.298;2023-06-22T08:25:25;95646.04;;;34.02;36.89
6096;BME280;25081;42.698;23.298;2023-06-22T08:27:36;95635.03;;;33.05;37.46
6096;BME280;25081;42.698;23.298;2023-06-22T08:29:46;95634.40;;;32.55;38.79
6096;BME280;25081;42.698;23.298;2023-06-22T08:31:57;95639.56;;;32.91;39.18
6096;BME280;25081;42.698;23.298;2023-06-22T08:34:08;95641.08;;;32.54;40.65
6096;BME280;25081;42.698;23.298;2023-06-22T08:36:18;95639.69;;;34.17;37.05
6096;BME280;25081;42.698;23.298;2023-06-22T08:38:29;95638.09;;;35.09;35.43
6096;BME280;25081;42.698;23.298;2023-06-22T08:40:40;95633.69;;;34.15;36.97
6096;BME280;25081;42.698;23.298;2023-06-22T08:42:50;95638.72;;;33.46;39.03
6096;BME280;25081;42.698;23.298;2023-06-22T08:45:01;95640.50;;;33.54;39.71
6096;BME280;25081;42.698;23.298;2023-06-22T08:47:11;95642.80;;;33.15;39.63
6096;BME280;25081;42.698;23.298;2023-06-22T08:49:22;95644.30;;;33.56;40.01
6096;BME280;25081;42.698;23.298;2023-06-22T08:51:32;95635.75;;;34.63;36.48
6096;BME280;25081;42.698;23.298;2023-06-22T08:53:43;95630.14;;;35.17;36.30
6096;BME280;25081;42.698;23.298;2023-06-22T08:55:54;95628.55;;;34.87;36.71
6096;BME280;25081;42.698;23.298;2023-06-22T08:58:04;95627.54;;;35.05;35.37
6096;BME280;25081;42.698;23.298;2023-06-22T09:00:18;95620.95;;;35.55;33.80
6096;BME280;25081;42.698;23.298;2023-06-22T09:02:29;95612.71;;;35.72;34.23
6096;BME280;25081;42.698;23.298;2023-06-22T09:04:40;95621.05;;;35.40;35.73
6096;BME280;25081;42.698;23.298;2023-06-22T09:06:50;95616.66;;;35.48;34.59
6096;BME280;25081;42.698;23.298;2023-06-22T09:09:01;95613.96;;;35.52;33.90
6096;BME280;25081;42.698;23.298;2023-06-22T09:11:11;95611.15;;;35.62;34.15
6096;BME280;25081;42.698;23.298;2023-06-22T09:13:22;95614.71;;;35.39;33.08
6096;BME280;25081;42.698;23.298;2023-06-22T09:15:33;95621.48;;;34.99;32.90
6096;BME280;25081;42.698;23.298;2023-06-22T09:17:44;95617.67;;;34.79;32.74
6096;BME280;25081;42.698;23.298;2023-06-22T09:19:55;95615.62;;;33.70;33.92
6096;BME280;25081;42.698;23.298;2023-06-22T09:22:07;95619.87;;;34.69;34.72
6096;BME280;25081;42.698;23.298;2023-06-22T09:24:18;95611.77;;;34.70;34.42
6096;BME280;25081;42.698;23.298;2023-06-22T09:26:28;95619.92;;;34.83;33.52
6096;BME280;25081;42.698;23.298;2023-06-22T09:28:39;95619.59;;;35.46;31.86
6096;BME280;25081;42.698;23.298;2023-06-22T09:30:50;95620.77;;;35.91;30.97
6096;BME280;25081;42.698;23.298;2023-06-22T09:33:01;95615.89;;;36.37;29.92
6096;BME280;25081;42.698;23.298;2023-06-22T09:35:11;95619.84;;;36.23;30.71
6096;BME280;25081;42.698;23.298;2023-06-22T09:37:22;95627.33;;;35.04;32.17
6096;BME280;25081;42.698;23.298;2023-06-22T09:39:33;95622.27;;;33.22;33.82
6096;BME280;25081;42.698;23.298;2023-06-22T09:41:44;95621.91;;;32.73;35.59
6096;BME280;25081;42.698;23.298;2023-06-22T09:43:54;95626.30;;;34.03;33.19
6096;BME280;25081;42.698;23.298;2023-06-22T09:46:05;95627.01;;;34.70;31.54
6096;BME280;25081;42.698;23.298;2023-06-22T09:48:16;95622.61;;;32.18;35.36
6096;BME280;25081;42.698;23.298;2023-06-22T09:50:26;95618.67;;;32.71;34.18
6096;BME280;25081;42.698;23.298;2023-06-22T09:52:37;95623.08;;;31.01;38.15
6096;BME280;25081;42.698;23.298;2023-06-22T09:54:48;95613.20;;;32.07;37.70
6096;BME280;25081;42.698;23.298;2023-06-22T09:56:58;95600.70;;;33.75;36.12
6096;BME280;25081;42.698;23.298;2023-06-22T09:59:09;95602.45;;;34.88;32.62
6096;BME280;25081;42.698;23.298;2023-06-22T10:01:20;95602.58;;;32.73;35.12
6096;BME280;25081;42.698;23.298;2023-06-22T10:03:31;95598.00;;;32.13;36.51
6096;BME280;25081;42.698;23.298;2023-06-22T10:05:42;95590.51;;;33.53;35.23
6096;BME280;25081;42.698;23.298;2023-06-22T10:07:52;95601.61;;;34.04;35.13
6096;BME280;25081;42.698;23.298;2023-06-22T10:10:03;95598.72;;;33.50;34.97
6096;BME280;25081;42.698;23.298;2023-06-22T10:12:14;95596.64;;;33.94;34.95
6096;BME280;25081;42.698;23.298;2023-06-22T10:14:25;95594.25;;;32.86;35.73
6096;BME280;25081;42.698;23.298;2023-06-22T10:16:35;95602.55;;;31.17;37.67
6096;BME280;25081;42.698;23.298;2023-06-22T10:18:46;95595.02;;;30.87;38.13
6096;BME280;25081;42.698;23.298;2023-06-22T10:20:56;95600.14;;;30.29;39.59
6096;BME280;25081;42.698;23.298;2023-06-22T10:23:07;95590.44;;;30.37;39.25
6096;BME280;25081;42.698;23.298;2023-06-22T10:25:18;95591.97;;;31.07;38.08
6096;BME280;25081;42.698;23.298;2023-06-22T10:27:28;95590.86;;;32.36;36.89
6096;BME280;25081;42.698;23.298;2023-06-22T10:29:39;95590.81;;;31.90;35.90
6096;BME280;25081;42.698;23.298;2023-06-22T10:31:49;95584.50;;;32.70;35.85
6096;BME280;25081;42.698;23.298;2023-06-22T10:34:00;95580.28;;;33.48;35.27
6096;BME280;25081;42.698;23.298;2023-06-22T10:36:11;95578.31;;;33.48;35.28
6096;BME280;25081;42.698;23.298;2023-06-22T10:38:21;95577.11;;;33.71;34.86
6096;BME280;25081;42.698;23.298;2023-06-22T10:40:32;95573.52;;;34.12;34.64
6096;BME280;25081;42.698;23.298;2023-06-22T10:42:43;95568.67;;;34.63;32.39
6096;BME280;25081;42.698;23.298;2023-06-22T10:44:53;95561.64;;;35.31;32.58
6096;BME280;25081;42.698;23.298;2023-06-22T10:47:05;95559.53;;;35.57;32.46
6096;BME280;25081;42.698;23.298;2023-06-22T10:49:15;95562.95;;;35.14;33.07
6096;BME280;25081;42.698;23.298;2023-06-22T10:51:26;95562.33;;;34.72;33.57
6096;BME280;25081;42.698;23.298;2023-06-22T10:53:37;95560.42;;;32.77;36.54
6096;BME280;25081;42.698;23.298;2023-06-22T10:55:48;95559.71;;;32.80;36.62
6096;BME280;25081;42.698;23.298;2023-06-22T10:57:58;95560.61;;;33.12;35.69
6096;BME280;25081;42.698;23.298;2023-06-22T11:00:13;95558.04;;;32.69;35.22
6096;BME280;25081;42.698;23.298;2023-06-22T11:02:24;95557.83;;;33.27;35.02
6096;BME280;25081;42.698;23.298;2023-06-22T11:04:35;95556.73;;;33.54;35.37
6096;BME280;25081;42.698;23.298;2023-06-22T11:06:46;95562.41;;;33.29;34.63
6096;BME280;25081;42.698;23.298;2023-06-22T11:08:56;95561.55;;;32.88;34.39
6096;BME280;25081;42.698;23.298;2023-06-22T11:11:07;95553.83;;;32.59;34.80
6096;BME280;25081;42.698;23.298;2023-06-22T11:13:18;95548.11;;;33.18;34.54
6096;BME280;25081;42.698;23.298;2023-06-22T11:15:28;95552.24;;;32.52;36.75
6096;BME280;25081;42.698;23.298;2023-06-22T11:17:39;95558.28;;;31.71;36.77
6096;BME280;25081;42.698;23.298;2023-06-22T11:19:50;95554.60;;;31.55;37.85
6096;BME280;25081;42.698;23.298;2023-06-22T11:22:00;95547.78;;;31.03;37.32
6096;BME280;25081;42.698;23.298;2023-06-22T11:24:11;95547.92;;;31.74;37.25
6096;BME280;25081;42.698;23.298;2023-06-22T11:26:22;95543.71;;;31.40;37.23
6096;BME280;25081;42.698;23.298;2023-06-22T11:28:32;95538.64;;;31.54;38.60
6096;BME280;25081;42.698;23.298;2023-06-22T11:30:43;95537.77;;;32.15;37.36
6096;BME280;25081;42.698;23.298;2023-06-22T11:32:54;95535.66;;;32.30;36.48